Record high temperature 44.9°C Record low temperature -0.3°C Record high gust 87.3 km/h Record high average 77.7 km/h Record daily rain 484.8 mm Record low windchill -5.8°C Record high barometer 1043.6 hPa Record low barometer 978.0 hPa
Daily high pressure 1014.8 mb Daily low pressure 1013.6 mb Daily low windchill 23.6°C Daily high heat index 26.4°C Daily high gust speed 13.0 kmh SSE Daily high average speed 9.4 kmh S
Estación de MeteoMurcia.com -------- Murcia-Puente Tocinos
Ultima grabación a: 08:00 Data: 16 August 2018, time of next update: 08:10
Tiempo actualmostly cloudy Temperatura actual24.0°C (75.2°F) (Indice de Calor24.0°C ), Temperatura aparente 27.0°C
Temperatura máxima (desde medianoche)26.4°C at: 00:00 Temperatura mínima (desde medianoche)23.6°C at: 06:59
Velocidad media del viento (diez minutos)2.0 kmh (1.1 kts) Dirección del viento (diez minutos)WSW (247°)
Indice de Calor24.0°C ráfagas maxima (última hora)12.2 kmh (6.6 kts) at: 06:56
ráfagas maxima (desde medianoche)13.0 kmh (7.0 kts) at: 02:54 Maximo media de un minuto (desde medianoche)9.4 kmh (5.1 kts) at: 03:05
Lluvia (última hora)0.0 mm Lluvia (desde medianoche)0.0 mm (0.00 in.)---
Lluvia Este mes 0.8 mm (0.03 in.) Lluvia Hasta la fecha este año139.7 mm (5.50 in.)
Lluvia máxima por minuto (última hora)0.0 mm/min Lluvia maxima por hora (últimas 6 horas)0.0 mm/hora
Lluvia de ayer 0.3 mm Punto de rocío 20.3°C (Wet Bulb :21.6°C )
Humedad 80 %, Humidex 31.9°C Barómetro corregido a msl1014.1 mb
cambio de presión+0.3 mb (última hora) Tendencia (últimas 1 hora)ESTACIONARIO
cambio de presión (últimas 12 horas)+0.2 mb cambio de presión (últimas 6 horas)-0.7 mb
Current Temp. Interna 30.8°C
Current Hum. Interna 49%


Última imagen cámara web


Weather report/warning/Metars

Alicante / El Altet, Spain (LEAL) 38-17N 000-33W 31M
Aug 16, 2018 - 01:30 AM EDT / 2018.08.16 0530 UTC
Wind: Variable at 2 MPH (2 KT):0
Visibility: greater than 7 mile(s):0
Sky conditions: mostly cloudy
Temperature: 77 F (25 C)
Dew Point: 71 F (22 C)
Relative Humidity: 83%
Pressure (altimeter): 29.97 in. Hg (1015 hPa)
ob: LEAL 160530Z VRB02KT 9999 FEW020 BKN057 25/22 Q1015 NOSIG
cycle: 5
Murcia / San Javier, Spain (LELC) 37-47N 000-48W 3M
Aug 16, 2018 - 01:30 AM EDT / 2018.08.16 0530 UTC
Wind: from the N (350 degrees) at 6 MPH (5 KT):0
Visibility: greater than 7 mile(s):0
Sky conditions: mostly cloudy
Temperature: 75 F (24 C)
Dew Point: 71 F (22 C)
Relative Humidity: 88%
Pressure (altimeter): 29.97 in. Hg (1015 hPa)
ob: LELC 160530Z 35005KT 9999 BKN020 24/22 Q1015 NOSIG
cycle: 5
Murcia / Alcantarilla, Spain (LERI) 37-57N 001-14W 75M
Aug 15, 2018 - 02:00 PM EDT / 2018.08.15 1800 UTC
Wind: from the SE (130 degrees) at 8 MPH (7 KT) (direction variable):0
Visibility: greater than 7 mile(s):0
Sky conditions: mostly cloudy
Temperature: 82 F (28 C)
Dew Point: 71 F (22 C)
Relative Humidity: 69%
Pressure (altimeter): 30.00 in. Hg (1016 hPa)
ob: LERI 151800Z 13007KT 080V160 9999 FEW030 BKN060 28/22 Q1016 NOSIG
cycle: 18
Gerona / Costa Brava, Spain (LEGE) 41-54N 002-46E 129M
Aug 16, 2018 - 01:30 AM EDT / 2018.08.16 0530 UTC
Wind: from the NE (040 degrees) at 2 MPH (2 KT):0
Visibility: greater than 7 mile(s):0
Sky conditions: mostly clear
Temperature: 62 F (17 C)
Dew Point: 60 F (16 C)
Relative Humidity: 93%
Pressure (altimeter): 30.00 in. Hg (1016 hPa)
ob: LEGE 160530Z 04002KT 9999 FEW045 17/16 Q1016
cycle: 5
Madri-Colmenar, Spain (LECV) 40-39N 003-44W
Aug 15, 2018 - 02:00 PM EDT / 2018.08.15 1800 UTC
Wind: Variable at 2 MPH (2 KT):0
Visibility: greater than 7 mile(s):0
Sky conditions: mostly clear
Temperature: 86 F (30 C)
Dew Point: 41 F (5 C)
Relative Humidity: 20%
Pressure (altimeter): 30.03 in. Hg (1017 hPa)
ob: LECV 151800Z VRB02KT 9999 FEW040 30/05 Q1017
cycle: 18
Asturias / Aviles, Spain (LEAS) 43-33N 006-02W 130M
Aug 16, 2018 - 01:30 AM EDT / 2018.08.16 0530 UTC
Wind: from the W (280 degrees) at 3 MPH (3 KT) (direction variable):0
Visibility: greater than 7 mile(s):0
Sky conditions: mostly cloudy
Temperature: 64 F (18 C)
Dew Point: 64 F (18 C)
Relative Humidity: 100%
Pressure (altimeter): 30.06 in. Hg (1018 hPa)
ob: LEAS 160530Z 28003KT 260V320 9999 BKN045 18/18 Q1018 NOSIG
cycle: 5
Almeria / Aeropuerto, Spain (LEAM) 36-51N 002-23W 21M
Aug 16, 2018 - 01:30 AM EDT / 2018.08.16 0530 UTC
Wind: from the NNW (340 degrees) at 5 MPH (4 KT) (direction variable):0
Visibility: greater than 7 mile(s):0
Temperature: 77 F (25 C)
Dew Point: 69 F (21 C)
Relative Humidity: 78%
Pressure (altimeter): 29.97 in. Hg (1015 hPa)
ob: LEAM 160530Z 34004KT 300V010 CAVOK 25/21 Q1015
cycle: 5
Pamplona / Noain, Spain (LEPP) 42-46N 001-38W 453M
Aug 16, 2018 - 01:30 AM EDT / 2018.08.16 0530 UTC
Wind: from the S (170 degrees) at 1 MPH (1 KT):0
Visibility: greater than 7 mile(s):0
Sky conditions: mostly clear
Temperature: 59 F (15 C)
Dew Point: 55 F (13 C)
Relative Humidity: 87%
Pressure (altimeter): 30.06 in. Hg (1018 hPa)
ob: LEPP 160530Z 17001KT 9999 FEW016 15/13 Q1018
cycle: 5
Badajoz / Talavera La Real, Spain (LEBZ) 38-53N 006-49W 192M
Aug 16, 2018 - 01:00 AM EDT / 2018.08.16 0500 UTC
Wind: from the W (280 degrees) at 6 MPH (5 KT):0
Visibility: greater than 7 mile(s):0
Temperature: 68 F (20 C)
Dew Point: 60 F (16 C)
Relative Humidity: 77%
Pressure (altimeter): 29.97 in. Hg (1015 hPa)
ob: LEBZ 160500Z 28005KT CAVOK 20/16 Q1015
cycle: 5
Albacete / Los Llanos, Spain (LEAB) 38-57N 001-51W 704M
Aug 16, 2018 - 01:00 AM EDT / 2018.08.16 0500 UTC
Wind: from the ESE (110 degrees) at 6 MPH (5 KT) (direction variable):0
Visibility: greater than 7 mile(s):0
Temperature: 69 F (21 C)
Dew Point: 62 F (17 C)
Relative Humidity: 77%
Pressure (altimeter): 30.06 in. Hg (1018 hPa)
ob: LEAB 160500Z 11005KT 090V150 CAVOK 21/17 Q1018 NOSIG
cycle: 5



La informacion se graba a intervalos de 2 minutos, pero hay info grabada cada minuto. Optimizado para 800*600 y Color verdadero. Use el boton de

Use the RECARGA en su navegador para recojer la ulima info.

Clicar aquí para regarga diaria de medias/extremas del mes














Created by "Weather Display" software version 10.37S at this start time/date 2:12:23 26/07/2018

La estación de MeteoMurcia.com, publica sus datos en los siguientes proyectos:

Meteoclimatic www.awekas.at

W3Counter
Web Analytics